首页
METAR-TAF:

METAR-TAF

机场 :

Macon County Airport

富兰克林, 北卡罗来纳州, 美国

纬度: 35-13N, 经度: 083-25W, 海拔: 616米

当前天气观测

该预报发布于32分钟前的11:00 UTC
静风
温度 -3°C
湿度 100%
气压 1020 hPa
能見度: 16.1公里
天空无云

METAR: K1A5 181100Z AUTO 00000KT 10SM CLR M03/M03 A3011 RMK AO2 T10301030

时间: 06:32 (11:32 UTC)


TAF: 丢失

超过4000个机场的气象观测和天气预报(METAR&TAF报告)。

可查询的气象台以黄色和红色小点在地图上表示。

将鼠标移到小点上方,可查看气象台名称。

然后点击查看天气观测和预报。

如需切换地图:点击带黑十字的绿色按钮放大地图;点击带横线的绿色按钮缩小地图;或者点击绿色箭头查看邻近地区的地图。


METAR-TAF: